KHON/HON METAR and TAF weather

Enter ICAO airport designator
Station Type Date Time Source
KHON METAR 2021/05/14 06:55 UTC NOAA

KHON 140655Z AUTO 17007KT 10SM FEW100 12/08 A3007 RMK AO2 SLP182 T01170083


Station Type Date Time Source
KHON Decoded METAR 2021/05/14 06:55 UTC NOAA

HURON REGIONAL AIRPORT, SD, United States (KHON) 44-23N 098-14W 390M
May 14, 2021 - 02:55 AM EDT / 2021.05.14 0655 UTC
Wind: from the S (170 degrees) at 8 MPH (7 KT):0
Visibility: 10 mile(s):0
Sky conditions: mostly clear
Temperature: 53.1 F (11.7 C)
Dew Point: 46.9 F (8.3 C)
Relative Humidity: 79%
Pressure (altimeter): 30.07 in. Hg (1018 hPa)
ob: KHON 140655Z AUTO 17007KT 10SM FEW100 12/08 A3007 RMK AO2 SLP182 T01170083
cycle: 7

Station Type Date Time Source
KHON TAF 2021/05/14 06:22 UTC NOAA

TAF KHON 140520Z 1406/1506 16010KT P6SM BKN060
FM141500 23007KT P6SM SCT060
FM142000 34005KT P6SM BKN060
FM150200 01006KT P6SM SCT250

Example: see airport list